createdAt,value
2019-03-10T00:06:44.163Z,81.30
2019-03-10T00:09:13.530Z,79.81
2019-03-10T00:11:42.872Z,82.29
2019-03-10T00:17:14.917Z,80.83
2019-03-10T00:19:44.270Z,80.40
2019-03-10T00:22:13.677Z,80.38
2019-03-10T00:30:48.128Z,82.60
2019-03-10T00:33:17.488Z,84.26
2019-03-10T00:35:46.828Z,82.02
2019-03-10T00:38:16.163Z,82.66
2019-03-10T00:41:24.323Z,83.67
2019-03-10T00:44:32.372Z,82.09
2019-03-10T00:47:39.612Z,80.76
2019-03-10T00:50:46.862Z,82.98
2019-03-10T00:53:15.515Z,81.74
2019-03-10T00:55:44.841Z,80.23
2019-03-10T00:58:14.263Z,80.82
2019-03-10T01:00:43.605Z,80.57
2019-03-10T01:03:12.936Z,81.36
2019-03-10T01:05:42.351Z,81.24
2019-03-10T01:08:11.928Z,81.18
2019-03-10T01:10:41.258Z,80.57
2019-03-10T01:13:10.602Z,79.51
2019-03-10T01:24:46.526Z,79.84
2019-03-10T01:27:15.845Z,83.15
2019-03-10T01:29:45.183Z,81.81
2019-03-10T01:32:53.236Z,79.94
2019-03-10T01:35:25.388Z,78.36
2019-03-10T01:40:56.991Z,78.38
2019-03-10T01:43:26.331Z,77.80
2019-03-10T01:45:55.660Z,79.63
2019-03-10T01:48:25.009Z,79.67
2019-03-10T01:50:54.374Z,77.84
2019-03-10T01:53:25.749Z,77.28
2019-03-10T01:56:13.006Z,76.88
2019-03-10T01:58:42.384Z,76.46
2019-03-10T02:01:11.691Z,78.47
2019-03-10T02:03:41.064Z,76.59
2019-03-10T02:06:20.661Z,76.78
2019-03-10T02:08:50.013Z,76.50
2019-03-10T02:11:19.400Z,77.00
2019-03-10T02:16:50.860Z,78.05
2019-03-10T02:19:20.202Z,79.81
2019-03-10T02:21:49.551Z,79.84
2019-03-10T02:24:23.820Z,80.37
2019-03-10T02:27:08.251Z,78.61
2019-03-10T02:29:37.579Z,79.17
2019-03-10T02:32:06.920Z,80.29
2019-03-10T02:34:36.272Z,79.98
2019-03-10T02:37:05.618Z,79.04
2019-03-10T02:39:34.953Z,80.05
2019-03-10T02:42:04.287Z,78.40
2019-03-10T02:44:33.640Z,78.54
2019-03-10T02:47:02.979Z,80.01
2019-03-10T02:52:35.291Z,80.21
2019-03-10T02:55:05.082Z,79.75
2019-03-10T02:57:34.417Z,82.55
2019-03-10T03:00:06.019Z,79.32
2019-03-10T03:05:37.496Z,83.02
2019-03-10T03:08:06.861Z,84.37
2019-03-10T03:10:36.204Z,82.50
2019-03-10T03:13:05.676Z,83.23
2019-03-10T03:15:35.000Z,84.08
2019-03-10T03:18:04.450Z,81.42
2019-03-10T03:20:33.797Z,82.11
2019-03-10T03:23:03.147Z,83.32
2019-03-10T03:25:32.498Z,85.49
2019-03-10T03:28:01.860Z,84.14
2019-03-10T03:30:31.228Z,82.85
2019-03-10T03:33:00.645Z,84.82
2019-03-10T03:35:50.316Z,86.87
2019-03-10T03:38:22.929Z,84.49
2019-03-10T03:43:55.979Z,86.13
2019-03-10T03:46:25.324Z,86.55
2019-03-10T03:48:54.656Z,85.13
2019-03-10T03:51:23.981Z,85.60
2019-03-10T03:53:53.315Z,86.19
2019-03-10T03:56:22.661Z,88.33
2019-03-10T03:58:52.011Z,87.18
2019-03-10T04:01:24.988Z,88.19
2019-03-10T04:06:56.577Z,88.95
2019-03-10T04:09:25.925Z,90.33
2019-03-10T04:11:55.239Z,91.18
2019-03-10T04:14:24.581Z,91.29
2019-03-10T04:16:53.935Z,92.11
2019-03-10T04:19:23.281Z,93.68
2019-03-10T04:27:57.526Z,92.30
2019-03-10T04:30:26.858Z,90.27
2019-03-10T04:32:56.189Z,87.93
2019-03-10T04:35:25.524Z,90.19
2019-03-10T04:37:54.856Z,92.52
2019-03-10T04:40:24.187Z,89.80
2019-03-10T04:42:53.532Z,94.54
2019-03-10T04:45:22.855Z,91.66
2019-03-10T04:47:52.188Z,89.23
2019-03-10T04:50:21.515Z,88.27
2019-03-10T04:52:50.904Z,88.49
2019-03-10T04:55:39.812Z,88.89
2019-03-10T05:03:47.401Z,88.82
2019-03-10T05:06:16.758Z,90.11
2019-03-10T05:08:46.095Z,90.16
2019-03-10T05:11:15.492Z,90.32
2019-03-10T05:16:47.185Z,90.57
2019-03-10T05:19:16.509Z,89.27
2019-03-10T05:21:45.859Z,87.19
2019-03-10T05:24:15.322Z,87.01
2019-03-10T05:26:44.667Z,85.95
2019-03-10T05:32:16.484Z,84.73
2019-03-10T05:34:45.811Z,85.46
2019-03-10T05:37:15.161Z,84.42
2019-03-10T05:39:44.507Z,85.65
2019-03-10T05:42:25.679Z,83.69
2019-03-10T05:44:54.321Z,82.13
2019-03-10T05:47:22.867Z,81.69
2019-03-10T05:49:52.225Z,80.24
2019-03-10T05:52:21.582Z,82.15
2019-03-10T05:54:50.943Z,78.29
2019-03-10T05:57:20.281Z,77.86
2019-03-10T05:59:49.623Z,77.27
2019-03-10T06:02:18.969Z,77.08
2019-03-10T06:04:48.612Z,76.26
2019-03-10T06:07:17.942Z,74.04
2019-03-10T06:09:47.283Z,77.68
2019-03-10T06:12:16.629Z,74.25
2019-03-10T06:14:45.986Z,73.64
2019-03-10T06:17:15.304Z,74.50
2019-03-10T06:19:44.674Z,71.62
2019-03-10T06:22:14.016Z,70.89
2019-03-10T06:24:43.406Z,68.99
2019-03-10T06:27:12.758Z,64.43
2019-03-10T06:29:42.128Z,62.04
2019-03-10T06:35:14.168Z,60.12
2019-03-10T06:37:43.502Z,58.27
2019-03-10T06:43:15.505Z,57.62
2019-03-10T06:45:44.856Z,57.95
2019-03-10T06:51:16.351Z,57.30
2019-03-10T06:56:48.444Z,55.87
2019-03-10T06:59:17.757Z,56.91
2019-03-10T07:01:59.253Z,54.34
2019-03-10T07:04:27.913Z,53.59
2019-03-10T07:06:57.297Z,53.17
2019-03-10T07:09:26.656Z,54.00
2019-03-10T07:11:56.007Z,52.34
2019-03-10T07:14:25.335Z,52.56
2019-03-10T07:19:56.452Z,51.37
2019-03-10T07:22:25.810Z,51.42
2019-03-10T07:24:55.144Z,51.61
2019-03-10T07:30:39.855Z,50.13
2019-03-10T07:33:24.479Z,49.04
2019-03-10T07:36:13.260Z,48.54
2019-03-10T07:38:48.412Z,49.08
2019-03-10T07:41:33.337Z,47.50
2019-03-10T07:44:08.107Z,47.09
2019-03-10T07:46:56.308Z,46.18
2019-03-10T07:49:45.228Z,46.11
2019-03-10T07:52:34.077Z,45.99
2019-03-10T07:55:15.103Z,45.84
2019-03-10T07:58:03.210Z,45.27
2019-03-10T08:00:52.077Z,44.90
2019-03-10T08:06:34.548Z,43.96
2019-03-10T08:11:58.736Z,43.88
2019-03-10T08:17:49.696Z,43.53
2019-03-10T08:20:37.709Z,43.46
2019-03-10T08:23:26.530Z,43.95
2019-03-10T08:29:17.618Z,42.87
2019-03-10T08:32:06.405Z,43.21
2019-03-10T08:34:54.494Z,42.27
2019-03-10T08:37:30.747Z,42.46
2019-03-10T08:40:18.736Z,42.07
2019-03-10T08:43:06.874Z,41.89
2019-03-10T08:48:42.730Z,41.47
2019-03-10T08:51:31.502Z,40.66
2019-03-10T08:54:20.313Z,41.17
2019-03-10T08:57:09.099Z,41.61
2019-03-10T08:59:57.101Z,42.15
2019-03-10T09:02:45.963Z,41.77
2019-03-10T09:05:34.750Z,43.29
2019-03-10T09:08:22.843Z,42.45
2019-03-10T09:11:10.846Z,42.80
2019-03-10T09:13:58.938Z,42.56
2019-03-10T09:16:47.943Z,42.68
2019-03-10T09:19:35.947Z,42.94
2019-03-10T09:22:24.019Z,42.86
2019-03-10T09:25:12.005Z,42.92
2019-03-10T09:27:52.931Z,42.71
2019-03-10T09:30:41.739Z,43.42
2019-03-10T09:33:29.822Z,41.42
2019-03-10T09:36:17.931Z,41.73
2019-03-10T09:39:06.728Z,41.01
2019-03-10T09:41:54.817Z,41.53
2019-03-10T09:44:43.663Z,41.45
2019-03-10T09:47:32.501Z,41.19
2019-03-10T09:50:11.804Z,41.63
2019-03-10T09:53:00.648Z,41.99
2019-03-10T09:55:49.439Z,41.87
2019-03-10T09:58:32.237Z,41.40
2019-03-10T10:01:21.044Z,41.16
2019-03-10T10:04:09.866Z,41.70
2019-03-10T10:06:57.974Z,41.30
2019-03-10T10:12:48.769Z,39.87
2019-03-10T10:15:37.552Z,40.19
2019-03-10T10:18:26.448Z,39.72
2019-03-10T10:21:14.431Z,39.57
2019-03-10T10:24:03.233Z,39.38
2019-03-10T10:26:52.131Z,39.94
2019-03-10T10:29:40.937Z,39.04
2019-03-10T10:32:28.979Z,38.28
2019-03-10T10:35:17.927Z,38.32
2019-03-10T10:41:09.021Z,37.72
2019-03-10T10:43:57.929Z,37.11
2019-03-10T10:49:49.255Z,36.78
2019-03-10T10:52:38.080Z,34.93
2019-03-10T10:58:28.405Z,33.96
2019-03-10T11:01:16.637Z,34.36
2019-03-10T11:07:07.666Z,33.70
2019-03-10T11:09:56.564Z,30.48
2019-03-10T11:12:45.351Z,31.05
2019-03-10T11:15:33.442Z,32.29
2019-03-10T11:18:22.284Z,32.74
2019-03-10T11:21:10.424Z,32.39
2019-03-10T11:23:58.426Z,32.60
2019-03-10T11:26:47.223Z,32.80
2019-03-10T11:32:38.184Z,32.50
2019-03-10T11:35:22.477Z,31.08
2019-03-10T11:38:11.326Z,29.49
2019-03-10T11:41:00.124Z,29.61
2019-03-10T11:43:48.223Z,28.03
2019-03-10T11:46:37.430Z,27.67
2019-03-10T11:49:26.243Z,27.45
2019-03-10T11:52:02.216Z,27.71
2019-03-10T11:54:50.319Z,28.37
2019-03-10T11:57:38.326Z,28.99
2019-03-10T12:03:29.678Z,27.78
2019-03-10T12:06:17.782Z,27.75
2019-03-10T12:09:05.909Z,28.92
2019-03-10T12:11:35.265Z,26.39
2019-03-10T12:14:04.823Z,27.46
2019-03-10T12:16:34.176Z,28.66
2019-03-10T12:19:03.550Z,26.05
2019-03-10T12:21:32.862Z,25.73
2019-03-10T12:24:02.269Z,24.94
2019-03-10T12:26:31.626Z,24.97
2019-03-10T12:29:00.983Z,25.03
2019-03-10T12:31:30.333Z,24.31
2019-03-10T12:33:59.682Z,24.82
2019-03-10T12:36:29.054Z,25.61
2019-03-10T12:38:58.347Z,25.44
2019-03-10T12:41:27.703Z,25.20
2019-03-10T12:43:57.036Z,24.03
2019-03-10T12:46:26.374Z,23.49
2019-03-10T12:48:55.712Z,23.25
2019-03-10T12:51:25.039Z,24.46
2019-03-10T12:53:54.387Z,24.66
2019-03-10T12:56:23.785Z,25.24
2019-03-10T12:58:53.153Z,24.48
2019-03-10T13:01:22.558Z,24.34
2019-03-10T13:03:58.952Z,25.15
2019-03-10T13:06:41.958Z,25.37
2019-03-10T13:09:11.521Z,26.11
2019-03-10T13:11:41.073Z,26.30
2019-03-10T13:14:10.470Z,25.80
2019-03-10T13:16:39.924Z,26.73
2019-03-10T13:19:09.351Z,27.06
2019-03-10T13:21:38.724Z,25.67
2019-03-10T13:24:10.225Z,25.60
2019-03-10T13:26:41.556Z,26.49
2019-03-10T13:29:28.888Z,24.94
2019-03-10T13:31:58.356Z,25.10
2019-03-10T13:34:27.876Z,25.22
2019-03-10T13:36:57.228Z,25.54
2019-03-10T13:39:26.579Z,26.08
2019-03-10T13:41:55.920Z,27.04
2019-03-10T13:44:25.384Z,27.52
2019-03-10T13:46:54.727Z,27.33
2019-03-10T13:49:24.039Z,27.66
2019-03-10T13:51:53.411Z,25.07
2019-03-10T13:54:22.740Z,24.29
2019-03-10T13:56:52.102Z,25.24
2019-03-10T13:59:20.711Z,24.97
2019-03-10T14:01:50.050Z,24.55
2019-03-10T14:04:19.376Z,23.68
2019-03-10T14:06:48.816Z,23.55
2019-03-10T14:09:18.121Z,22.87
2019-03-10T14:11:47.492Z,22.52
2019-03-10T14:14:16.828Z,24.03
2019-03-10T14:16:46.192Z,23.66
2019-03-10T14:19:15.512Z,23.08
2019-03-10T14:21:44.964Z,22.91
2019-03-10T14:24:14.504Z,23.90
2019-03-10T14:26:43.041Z,24.09
2019-03-10T14:29:12.409Z,22.67
2019-03-10T14:31:41.753Z,23.09
2019-03-10T14:34:11.204Z,23.45
2019-03-10T14:36:40.542Z,24.60
2019-03-10T14:39:21.364Z,24.78
2019-03-10T14:41:49.915Z,26.06
2019-03-10T14:44:19.266Z,24.39
2019-03-10T14:46:48.617Z,24.08
2019-03-10T14:49:23.064Z,23.58
2019-03-10T14:52:07.179Z,23.65
2019-03-10T14:54:36.502Z,23.83
2019-03-10T14:57:05.825Z,23.34
2019-03-10T14:59:35.179Z,24.56
2019-03-10T15:02:04.708Z,24.16
2019-03-10T15:04:34.069Z,24.79
2019-03-10T15:07:03.498Z,24.49
2019-03-10T15:09:32.984Z,25.13
2019-03-10T15:12:02.305Z,25.47
2019-03-10T15:14:31.656Z,26.47
2019-03-10T15:17:02.240Z,25.73
2019-03-10T15:19:50.297Z,25.65
2019-03-10T15:22:19.619Z,26.43
2019-03-10T15:24:48.953Z,27.11
2019-03-10T15:27:23.320Z,25.64
2019-03-10T15:30:11.458Z,27.42
2019-03-10T15:32:39.991Z,28.57
2019-03-10T15:35:09.529Z,27.15
2019-03-10T15:37:38.882Z,26.82
2019-03-10T15:40:09.673Z,28.58
2019-03-10T15:42:38.208Z,27.54
2019-03-10T15:45:08.568Z,30.16
2019-03-10T15:47:37.209Z,29.98
2019-03-10T15:50:10.363Z,30.27
2019-03-10T15:52:39.820Z,34.79
2019-03-10T15:55:09.330Z,37.61
2019-03-10T15:57:49.352Z,32.08
2019-03-10T16:00:40.211Z,32.44
2019-03-10T16:03:08.955Z,34.91
2019-03-10T16:05:38.335Z,33.76
2019-03-10T16:08:07.684Z,34.92
2019-03-10T16:10:37.061Z,31.88
2019-03-10T16:13:06.415Z,34.04
2019-03-10T16:15:35.755Z,33.33
2019-03-10T16:18:05.129Z,36.85
2019-03-10T16:20:33.826Z,35.14
2019-03-10T16:23:03.255Z,34.64
2019-03-10T16:25:32.935Z,35.26
2019-03-10T16:28:02.326Z,35.79
2019-03-10T16:30:31.668Z,35.81
2019-03-10T16:33:01.051Z,41.53
2019-03-10T16:35:30.422Z,40.32
2019-03-10T16:37:59.758Z,37.50
2019-03-10T16:40:29.117Z,36.74
2019-03-10T16:42:58.467Z,38.07
2019-03-10T16:45:27.956Z,35.29
2019-03-10T16:47:57.907Z,38.08
2019-03-10T16:50:26.552Z,36.08
2019-03-10T16:53:07.405Z,36.33
2019-03-10T16:55:36.227Z,36.14
2019-03-10T16:58:05.816Z,37.81
2019-03-10T17:00:35.324Z,36.83
2019-03-10T17:03:04.991Z,36.20
2019-03-10T17:05:33.754Z,37.36
2019-03-10T17:08:02.578Z,37.32
2019-03-10T17:10:31.995Z,37.21
2019-03-10T17:13:01.626Z,37.72
2019-03-10T17:15:31.264Z,42.48
2019-03-10T17:18:00.899Z,45.64
2019-03-10T17:20:30.258Z,41.87
2019-03-10T17:22:59.590Z,38.73
2019-03-10T17:25:28.932Z,39.39
2019-03-10T17:27:58.502Z,40.19
2019-03-10T17:30:27.956Z,41.64
2019-03-10T17:32:57.459Z,41.52
2019-03-10T17:35:26.963Z,42.33
2019-03-10T17:37:56.363Z,45.90
2019-03-10T17:40:25.894Z,43.74
2019-03-10T17:42:55.421Z,44.11
2019-03-10T17:45:24.919Z,43.72
2019-03-10T17:47:54.267Z,43.33
2019-03-10T17:50:23.709Z,44.25
2019-03-10T17:52:53.381Z,44.15
2019-03-10T17:55:22.911Z,45.54
2019-03-10T18:00:54.643Z,46.60
2019-03-10T18:03:24.050Z,43.64
2019-03-10T18:05:53.588Z,44.69
2019-03-10T18:11:24.969Z,44.70
2019-03-10T18:13:54.383Z,44.48
2019-03-10T18:16:23.823Z,46.84
2019-03-10T18:18:53.273Z,48.50
2019-03-10T18:21:22.679Z,44.09
2019-03-10T18:23:52.213Z,44.04
2019-03-10T18:26:21.598Z,44.21
2019-03-10T18:28:51.121Z,47.58
2019-03-10T18:31:20.578Z,44.59
2019-03-10T18:33:50.067Z,44.75
2019-03-10T18:36:31.043Z,46.27
2019-03-10T18:38:59.759Z,45.08
2019-03-10T18:41:29.261Z,46.05
2019-03-10T18:43:58.650Z,45.32
2019-03-10T18:46:28.029Z,48.02
2019-03-10T18:48:57.733Z,45.92
2019-03-10T18:51:27.080Z,46.59
2019-03-10T18:53:56.455Z,46.35
2019-03-10T18:56:25.810Z,47.86
2019-03-10T18:58:55.157Z,46.95
2019-03-10T19:01:24.504Z,46.66
2019-03-10T19:03:53.836Z,47.77
2019-03-10T19:06:23.284Z,48.14
2019-03-10T19:08:52.769Z,49.04
2019-03-10T19:11:22.307Z,48.78
2019-03-10T19:13:51.803Z,49.92
2019-03-10T19:16:21.223Z,50.72
2019-03-10T19:18:50.620Z,50.79
2019-03-10T19:21:20.101Z,50.58
2019-03-10T19:23:49.498Z,56.02
2019-03-10T19:26:18.969Z,50.24
2019-03-10T19:28:48.500Z,50.67
2019-03-10T19:31:17.923Z,52.19
2019-03-10T19:33:47.373Z,52.76
2019-03-10T19:36:16.814Z,56.90
2019-03-10T19:38:45.588Z,53.54
2019-03-10T19:41:14.977Z,52.30
2019-03-10T19:43:44.344Z,56.49
2019-03-10T19:46:13.146Z,54.43
2019-03-10T19:51:43.934Z,52.89
2019-03-10T19:57:15.008Z,52.96
2019-03-10T19:59:44.556Z,52.92
2019-03-10T20:02:13.941Z,53.94
2019-03-10T20:04:43.429Z,54.40
2019-03-10T20:07:12.921Z,56.17
2019-03-10T20:09:42.324Z,52.96
2019-03-10T20:12:11.777Z,52.14
2019-03-10T20:14:41.401Z,52.57
2019-03-10T20:17:10.842Z,54.33
2019-03-10T20:19:40.252Z,52.64
2019-03-10T20:22:09.694Z,52.59
2019-03-10T20:24:38.435Z,55.10
2019-03-10T20:27:07.818Z,52.80
2019-03-10T20:29:37.338Z,53.18
2019-03-10T20:32:14.000Z,55.71
2019-03-10T20:34:56.230Z,55.56
2019-03-10T20:37:25.627Z,58.97
2019-03-10T20:39:55.065Z,52.90
2019-03-10T20:45:26.250Z,54.68
2019-03-10T20:47:56.748Z,53.24
2019-03-10T20:50:25.634Z,53.35
2019-03-10T20:52:55.166Z,53.79
2019-03-10T20:55:24.709Z,53.76
2019-03-10T20:57:54.062Z,53.96
2019-03-10T21:00:23.608Z,56.10
2019-03-10T21:02:53.035Z,57.25
2019-03-10T21:05:22.641Z,58.53
2019-03-10T21:07:52.120Z,55.13
2019-03-10T21:10:21.532Z,53.80
2019-03-10T21:12:50.979Z,55.20
2019-03-10T21:15:20.316Z,53.57
2019-03-10T21:17:49.748Z,54.73
2019-03-10T21:20:19.095Z,55.74
2019-03-10T21:22:48.692Z,52.55
2019-03-10T21:25:19.177Z,56.74
2019-03-10T21:30:50.479Z,52.19
2019-03-10T21:33:19.832Z,51.40
2019-03-10T21:35:49.216Z,52.40
2019-03-10T21:38:18.579Z,52.31
2019-03-10T21:40:47.915Z,51.99
2019-03-10T21:43:17.388Z,53.43
2019-03-10T21:45:46.745Z,52.20
2019-03-10T21:48:16.080Z,54.35
2019-03-10T21:50:45.466Z,52.46
2019-03-10T21:53:14.802Z,51.60
2019-03-10T21:55:44.142Z,52.28
2019-03-10T22:01:15.416Z,52.17
2019-03-10T22:03:56.443Z,54.55
2019-03-10T22:06:25.109Z,56.24
2019-03-10T22:08:54.465Z,52.64
2019-03-10T22:11:23.775Z,51.84
2019-03-10T22:13:53.108Z,51.56
2019-03-10T22:16:22.469Z,51.40
2019-03-10T22:18:51.798Z,58.74
2019-03-10T22:24:04.081Z,51.39
2019-03-10T22:26:33.424Z,51.90
2019-03-10T22:29:02.871Z,51.75
2019-03-10T22:31:32.209Z,51.94
2019-03-10T22:34:01.556Z,53.09
2019-03-10T22:36:30.896Z,52.26
2019-03-10T22:39:00.277Z,52.52
2019-03-10T22:44:31.691Z,55.08
2019-03-10T22:47:01.036Z,52.25
2019-03-10T22:49:30.367Z,52.29
2019-03-10T22:51:59.699Z,54.61
2019-03-10T23:03:35.070Z,53.78
2019-03-10T23:06:04.397Z,52.17
2019-03-10T23:08:33.729Z,52.11
2019-03-10T23:11:14.885Z,52.14
2019-03-10T23:16:47.127Z,54.19
2019-03-10T23:19:16.465Z,57.17
2019-03-10T23:21:45.807Z,52.86
2019-03-10T23:27:17.482Z,51.92
2019-03-10T23:29:46.899Z,53.55
2019-03-10T23:38:20.568Z,52.60
2019-03-10T23:58:43.976Z,52.38
